sensor_id;sensor_type;location;lat;lon;timestamp;P1;durP1;ratioP1;P2;durP2;ratioP2
5157;SDS011;2598;52.364;9.772;2023-05-14T00:02:14;6.83;;;3.90;;
5157;SDS011;2598;52.364;9.772;2023-05-14T00:04:40;7.47;;;4.60;;
5157;SDS011;2598;52.364;9.772;2023-05-14T00:07:06;9.50;;;4.40;;
5157;SDS011;2598;52.364;9.772;2023-05-14T00:09:32;9.53;;;5.77;;
5157;SDS011;2598;52.364;9.772;2023-05-14T00:11:59;9.17;;;5.63;;
5157;SDS011;2598;52.364;9.772;2023-05-14T00:14:25;18.17;;;5.57;;
5157;SDS011;2598;52.364;9.772;2023-05-14T00:16:51;7.40;;;4.87;;
5157;SDS011;2598;52.364;9.772;2023-05-14T00:19:17;9.17;;;5.10;;
5157;SDS011;2598;52.364;9.772;2023-05-14T00:21:42;11.53;;;4.73;;
5157;SDS011;2598;52.364;9.772;2023-05-14T00:24:08;9.43;;;5.40;;
5157;SDS011;2598;52.364;9.772;2023-05-14T00:26:34;9.70;;;4.43;;
5157;SDS011;2598;52.364;9.772;2023-05-14T00:29:00;9.10;;;5.00;;
5157;SDS011;2598;52.364;9.772;2023-05-14T00:31:26;7.47;;;4.87;;
5157;SDS011;2598;52.364;9.772;2023-05-14T00:33:52;8.60;;;5.63;;
5157;SDS011;2598;52.364;9.772;2023-05-14T00:36:18;10.10;;;5.17;;
5157;SDS011;2598;52.364;9.772;2023-05-14T00:38:44;11.67;;;7.03;;
5157;SDS011;2598;52.364;9.772;2023-05-14T00:41:10;11.33;;;4.90;;
5157;SDS011;2598;52.364;9.772;2023-05-14T00:43:36;15.77;;;5.10;;
5157;SDS011;2598;52.364;9.772;2023-05-14T00:46:02;10.77;;;5.93;;
5157;SDS011;2598;52.364;9.772;2023-05-14T00:48:28;7.90;;;5.30;;
5157;SDS011;2598;52.364;9.772;2023-05-14T00:50:54;9.30;;;5.43;;
5157;SDS011;2598;52.364;9.772;2023-05-14T00:53:20;8.97;;;5.47;;
5157;SDS011;2598;52.364;9.772;2023-05-14T00:55:46;9.43;;;5.40;;
5157;SDS011;2598;52.364;9.772;2023-05-14T00:58:13;8.47;;;5.10;;
5157;SDS011;2598;52.364;9.772;2023-05-14T01:00:40;12.57;;;6.33;;
5157;SDS011;2598;52.364;9.772;2023-05-14T01:03:06;9.90;;;5.73;;
5157;SDS011;2598;52.364;9.772;2023-05-14T01:05:35;7.70;;;4.83;;
5157;SDS011;2598;52.364;9.772;2023-05-14T01:10:37;8.60;;;5.80;;
5157;SDS011;2598;52.364;9.772;2023-05-14T01:13:08;10.90;;;6.60;;
5157;SDS011;2598;52.364;9.772;2023-05-14T01:15:38;8.67;;;5.50;;
5157;SDS011;2598;52.364;9.772;2023-05-14T01:18:09;8.17;;;5.20;;
5157;SDS011;2598;52.364;9.772;2023-05-14T01:20:35;10.13;;;5.63;;
5157;SDS011;2598;52.364;9.772;2023-05-14T01:23:01;10.67;;;5.67;;
5157;SDS011;2598;52.364;9.772;2023-05-14T01:25:27;8.20;;;4.83;;
5157;SDS011;2598;52.364;9.772;2023-05-14T01:27:56;11.20;;;5.43;;
5157;SDS011;2598;52.364;9.772;2023-05-14T01:30:37;9.00;;;5.47;;
5157;SDS011;2598;52.364;9.772;2023-05-14T01:33:05;10.80;;;5.50;;
5157;SDS011;2598;52.364;9.772;2023-05-14T01:35:35;8.57;;;4.93;;
5157;SDS011;2598;52.364;9.772;2023-05-14T01:38:02;8.90;;;5.17;;
5157;SDS011;2598;52.364;9.772;2023-05-14T01:40:29;10.13;;;5.07;;
5157;SDS011;2598;52.364;9.772;2023-05-14T01:42:56;9.10;;;5.67;;
5157;SDS011;2598;52.364;9.772;2023-05-14T01:45:22;8.63;;;5.30;;
5157;SDS011;2598;52.364;9.772;2023-05-14T01:47:49;7.50;;;4.87;;
5157;SDS011;2598;52.364;9.772;2023-05-14T01:50:15;9.13;;;5.00;;
5157;SDS011;2598;52.364;9.772;2023-05-14T01:52:41;7.27;;;4.60;;
5157;SDS011;2598;52.364;9.772;2023-05-14T01:55:07;8.80;;;4.80;;
5157;SDS011;2598;52.364;9.772;2023-05-14T01:57:33;9.00;;;4.77;;
5157;SDS011;2598;52.364;9.772;2023-05-14T01:59:59;14.47;;;5.37;;
5157;SDS011;2598;52.364;9.772;2023-05-14T02:02:25;10.10;;;5.77;;
5157;SDS011;2598;52.364;9.772;2023-05-14T02:04:51;10.47;;;5.53;;
5157;SDS011;2598;52.364;9.772;2023-05-14T02:07:17;8.47;;;4.97;;
5157;SDS011;2598;52.364;9.772;2023-05-14T02:09:43;7.10;;;4.37;;
5157;SDS011;2598;52.364;9.772;2023-05-14T02:12:09;10.27;;;4.83;;
5157;SDS011;2598;52.364;9.772;2023-05-14T02:14:35;9.87;;;5.30;;
5157;SDS011;2598;52.364;9.772;2023-05-14T02:17:01;12.30;;;4.83;;
5157;SDS011;2598;52.364;9.772;2023-05-14T02:19:27;8.70;;;5.40;;
5157;SDS011;2598;52.364;9.772;2023-05-14T02:21:53;9.37;;;5.03;;
5157;SDS011;2598;52.364;9.772;2023-05-14T02:24:19;10.97;;;5.30;;
5157;SDS011;2598;52.364;9.772;2023-05-14T02:26:46;8.13;;;5.40;;
5157;SDS011;2598;52.364;9.772;2023-05-14T02:29:12;9.27;;;5.57;;
5157;SDS011;2598;52.364;9.772;2023-05-14T02:31:38;7.97;;;5.23;;
5157;SDS011;2598;52.364;9.772;2023-05-14T02:34:04;8.33;;;4.70;;
5157;SDS011;2598;52.364;9.772;2023-05-14T02:36:30;11.30;;;5.67;;
5157;SDS011;2598;52.364;9.772;2023-05-14T02:38:57;9.63;;;5.63;;
5157;SDS011;2598;52.364;9.772;2023-05-14T02:41:23;7.90;;;4.80;;
5157;SDS011;2598;52.364;9.772;2023-05-14T02:43:49;8.17;;;4.90;;
5157;SDS011;2598;52.364;9.772;2023-05-14T02:46:14;8.97;;;5.37;;
5157;SDS011;2598;52.364;9.772;2023-05-14T02:48:40;11.40;;;6.13;;
5157;SDS011;2598;52.364;9.772;2023-05-14T02:51:06;11.80;;;5.77;;
5157;SDS011;2598;52.364;9.772;2023-05-14T02:53:33;9.20;;;5.90;;
5157;SDS011;2598;52.364;9.772;2023-05-14T02:55:59;8.83;;;5.50;;
5157;SDS011;2598;52.364;9.772;2023-05-14T02:58:25;9.90;;;5.70;;
5157;SDS011;2598;52.364;9.772;2023-05-14T03:00:50;9.03;;;5.33;;
5157;SDS011;2598;52.364;9.772;2023-05-14T03:03:17;12.90;;;5.67;;
5157;SDS011;2598;52.364;9.772;2023-05-14T03:05:43;10.67;;;5.63;;
5157;SDS011;2598;52.364;9.772;2023-05-14T03:08:09;9.70;;;5.30;;
5157;SDS011;2598;52.364;9.772;2023-05-14T03:10:35;7.57;;;4.87;;
5157;SDS011;2598;52.364;9.772;2023-05-14T03:13:01;10.00;;;5.87;;
5157;SDS011;2598;52.364;9.772;2023-05-14T03:15:27;9.67;;;5.83;;
5157;SDS011;2598;52.364;9.772;2023-05-14T03:17:53;9.60;;;5.63;;
5157;SDS011;2598;52.364;9.772;2023-05-14T03:20:19;10.60;;;5.27;;
5157;SDS011;2598;52.364;9.772;2023-05-14T03:22:45;7.20;;;4.80;;
5157;SDS011;2598;52.364;9.772;2023-05-14T03:25:11;9.57;;;5.70;;
5157;SDS011;2598;52.364;9.772;2023-05-14T03:27:37;8.33;;;5.37;;
5157;SDS011;2598;52.364;9.772;2023-05-14T03:30:03;9.10;;;5.60;;
5157;SDS011;2598;52.364;9.772;2023-05-14T03:32:29;8.23;;;4.93;;
5157;SDS011;2598;52.364;9.772;2023-05-14T03:34:55;8.60;;;5.90;;
5157;SDS011;2598;52.364;9.772;2023-05-14T03:37:21;9.00;;;5.27;;
5157;SDS011;2598;52.364;9.772;2023-05-14T03:39:47;8.20;;;5.20;;
5157;SDS011;2598;52.364;9.772;2023-05-14T03:42:13;8.50;;;5.00;;
5157;SDS011;2598;52.364;9.772;2023-05-14T03:44:39;9.50;;;5.50;;
5157;SDS011;2598;52.364;9.772;2023-05-14T03:47:05;12.00;;;5.60;;
5157;SDS011;2598;52.364;9.772;2023-05-14T03:49:31;9.47;;;5.13;;
5157;SDS011;2598;52.364;9.772;2023-05-14T03:51:57;9.93;;;5.40;;
5157;SDS011;2598;52.364;9.772;2023-05-14T03:54:24;7.53;;;4.90;;
5157;SDS011;2598;52.364;9.772;2023-05-14T03:56:50;8.90;;;5.20;;
5157;SDS011;2598;52.364;9.772;2023-05-14T03:59:16;12.70;;;5.47;;
5157;SDS011;2598;52.364;9.772;2023-05-14T04:01:42;9.90;;;6.00;;
5157;SDS011;2598;52.364;9.772;2023-05-14T04:04:08;7.43;;;4.83;;
5157;SDS011;2598;52.364;9.772;2023-05-14T04:06:34;7.90;;;4.63;;
5157;SDS011;2598;52.364;9.772;2023-05-14T04:09:00;9.80;;;5.43;;
5157;SDS011;2598;52.364;9.772;2023-05-14T04:11:26;8.97;;;4.63;;
5157;SDS011;2598;52.364;9.772;2023-05-14T04:13:52;9.90;;;5.47;;
5157;SDS011;2598;52.364;9.772;2023-05-14T04:16:18;8.63;;;5.13;;
5157;SDS011;2598;52.364;9.772;2023-05-14T04:18:43;7.77;;;5.10;;
5157;SDS011;2598;52.364;9.772;2023-05-14T04:21:09;13.30;;;4.77;;
5157;SDS011;2598;52.364;9.772;2023-05-14T04:23:36;8.03;;;5.50;;
5157;SDS011;2598;52.364;9.772;2023-05-14T04:26:02;8.37;;;5.60;;
5157;SDS011;2598;52.364;9.772;2023-05-14T04:28:29;7.90;;;5.10;;
5157;SDS011;2598;52.364;9.772;2023-05-14T04:30:55;7.77;;;4.77;;
5157;SDS011;2598;52.364;9.772;2023-05-14T04:33:20;8.87;;;5.50;;
5157;SDS011;2598;52.364;9.772;2023-05-14T04:35:46;8.20;;;5.20;;
5157;SDS011;2598;52.364;9.772;2023-05-14T04:38:12;9.20;;;5.60;;
5157;SDS011;2598;52.364;9.772;2023-05-14T04:40:38;8.90;;;5.70;;
5157;SDS011;2598;52.364;9.772;2023-05-14T04:43:05;9.50;;;5.77;;
5157;SDS011;2598;52.364;9.772;2023-05-14T04:45:32;8.17;;;5.23;;
5157;SDS011;2598;52.364;9.772;2023-05-14T04:47:58;13.33;;;5.30;;
5157;SDS011;2598;52.364;9.772;2023-05-14T04:50:24;8.97;;;6.10;;
5157;SDS011;2598;52.364;9.772;2023-05-14T04:52:50;8.93;;;5.33;;
5157;SDS011;2598;52.364;9.772;2023-05-14T04:55:16;7.77;;;6.00;;
5157;SDS011;2598;52.364;9.772;2023-05-14T04:57:42;8.93;;;5.37;;
5157;SDS011;2598;52.364;9.772;2023-05-14T05:00:08;7.67;;;5.07;;
5157;SDS011;2598;52.364;9.772;2023-05-14T05:02:35;9.13;;;5.00;;
5157;SDS011;2598;52.364;9.772;2023-05-14T05:05:01;12.53;;;5.50;;
5157;SDS011;2598;52.364;9.772;2023-05-14T05:07:28;10.00;;;5.50;;
5157;SDS011;2598;52.364;9.772;2023-05-14T05:09:53;9.67;;;5.97;;
5157;SDS011;2598;52.364;9.772;2023-05-14T05:12:19;9.00;;;5.87;;
5157;SDS011;2598;52.364;9.772;2023-05-14T05:14:45;7.23;;;4.70;;
5157;SDS011;2598;52.364;9.772;2023-05-14T05:17:11;8.03;;;5.23;;
5157;SDS011;2598;52.364;9.772;2023-05-14T05:19:37;10.33;;;6.17;;
5157;SDS011;2598;52.364;9.772;2023-05-14T05:22:03;11.60;;;5.00;;
5157;SDS011;2598;52.364;9.772;2023-05-14T05:24:29;10.53;;;5.37;;
5157;SDS011;2598;52.364;9.772;2023-05-14T05:26:55;10.30;;;5.60;;
5157;SDS011;2598;52.364;9.772;2023-05-14T05:29:21;8.67;;;5.67;;
5157;SDS011;2598;52.364;9.772;2023-05-14T05:31:47;8.60;;;5.10;;
5157;SDS011;2598;52.364;9.772;2023-05-14T05:34:13;7.87;;;4.70;;
5157;SDS011;2598;52.364;9.772;2023-05-14T05:36:39;9.63;;;5.20;;
5157;SDS011;2598;52.364;9.772;2023-05-14T05:39:05;8.73;;;4.93;;
5157;SDS011;2598;52.364;9.772;2023-05-14T05:41:31;7.80;;;5.10;;
5157;SDS011;2598;52.364;9.772;2023-05-14T05:43:57;11.67;;;5.87;;
5157;SDS011;2598;52.364;9.772;2023-05-14T05:46:23;9.63;;;5.07;;
5157;SDS011;2598;52.364;9.772;2023-05-14T05:48:49;7.93;;;4.60;;
5157;SDS011;2598;52.364;9.772;2023-05-14T05:51:17;8.93;;;5.27;;
5157;SDS011;2598;52.364;9.772;2023-05-14T05:53:43;8.27;;;5.50;;
5157;SDS011;2598;52.364;9.772;2023-05-14T05:56:08;9.30;;;5.10;;
5157;SDS011;2598;52.364;9.772;2023-05-14T05:58:34;8.07;;;5.37;;
5157;SDS011;2598;52.364;9.772;2023-05-14T06:01:01;12.20;;;6.20;;
5157;SDS011;2598;52.364;9.772;2023-05-14T06:03:26;9.00;;;6.00;;
5157;SDS011;2598;52.364;9.772;2023-05-14T06:05:52;12.70;;;5.80;;
5157;SDS011;2598;52.364;9.772;2023-05-14T06:08:21;9.93;;;5.20;;
5157;SDS011;2598;52.364;9.772;2023-05-14T06:10:47;8.50;;;5.07;;
5157;SDS011;2598;52.364;9.772;2023-05-14T06:13:13;12.23;;;6.13;;
5157;SDS011;2598;52.364;9.772;2023-05-14T06:15:39;9.17;;;5.37;;
5157;SDS011;2598;52.364;9.772;2023-05-14T06:18:05;10.07;;;5.50;;
5157;SDS011;2598;52.364;9.772;2023-05-14T06:20:31;12.20;;;5.80;;
5157;SDS011;2598;52.364;9.772;2023-05-14T06:22:57;7.30;;;4.57;;
5157;SDS011;2598;52.364;9.772;2023-05-14T06:25:22;7.90;;;4.60;;
5157;SDS011;2598;52.364;9.772;2023-05-14T06:27:48;9.37;;;4.93;;
5157;SDS011;2598;52.364;9.772;2023-05-14T06:30:14;14.77;;;5.23;;
5157;SDS011;2598;52.364;9.772;2023-05-14T06:32:40;10.90;;;5.70;;
5157;SDS011;2598;52.364;9.772;2023-05-14T06:35:06;8.20;;;4.90;;
5157;SDS011;2598;52.364;9.772;2023-05-14T06:37:32;7.77;;;5.07;;
5157;SDS011;2598;52.364;9.772;2023-05-14T06:39:59;8.90;;;5.20;;
5157;SDS011;2598;52.364;9.772;2023-05-14T06:42:25;8.80;;;5.00;;
5157;SDS011;2598;52.364;9.772;2023-05-14T06:44:51;10.00;;;5.80;;
5157;SDS011;2598;52.364;9.772;2023-05-14T06:47:17;8.40;;;5.33;;
5157;SDS011;2598;52.364;9.772;2023-05-14T06:49:42;12.23;;;5.70;;
5157;SDS011;2598;52.364;9.772;2023-05-14T06:52:09;7.83;;;4.67;;
5157;SDS011;2598;52.364;9.772;2023-05-14T06:54:35;7.97;;;4.80;;
5157;SDS011;2598;52.364;9.772;2023-05-14T06:57:01;8.70;;;4.60;;
5157;SDS011;2598;52.364;9.772;2023-05-14T06:59:26;7.53;;;5.40;;
5157;SDS011;2598;52.364;9.772;2023-05-14T07:01:52;7.97;;;4.87;;
5157;SDS011;2598;52.364;9.772;2023-05-14T07:04:19;7.93;;;4.67;;
5157;SDS011;2598;52.364;9.772;2023-05-14T07:06:45;8.60;;;4.40;;
5157;SDS011;2598;52.364;9.772;2023-05-14T07:09:11;7.30;;;4.40;;
5157;SDS011;2598;52.364;9.772;2023-05-14T07:11:37;9.30;;;4.90;;
5157;SDS011;2598;52.364;9.772;2023-05-14T07:14:03;7.43;;;4.50;;
5157;SDS011;2598;52.364;9.772;2023-05-14T07:16:29;9.77;;;5.20;;
5157;SDS011;2598;52.364;9.772;2023-05-14T07:18:55;7.10;;;4.20;;
5157;SDS011;2598;52.364;9.772;2023-05-14T07:21:20;7.23;;;4.50;;
5157;SDS011;2598;52.364;9.772;2023-05-14T07:23:46;6.63;;;4.40;;
5157;SDS011;2598;52.364;9.772;2023-05-14T07:26:12;7.37;;;4.53;;
5157;SDS011;2598;52.364;9.772;2023-05-14T07:28:38;7.17;;;4.57;;
5157;SDS011;2598;52.364;9.772;2023-05-14T07:31:04;10.50;;;4.53;;
5157;SDS011;2598;52.364;9.772;2023-05-14T07:33:32;6.70;;;4.53;;
5157;SDS011;2598;52.364;9.772;2023-05-14T07:35:58;7.43;;;5.23;;
5157;SDS011;2598;52.364;9.772;2023-05-14T07:38:24;11.87;;;4.63;;
5157;SDS011;2598;52.364;9.772;2023-05-14T07:40:50;11.03;;;4.83;;
5157;SDS011;2598;52.364;9.772;2023-05-14T07:43:16;8.77;;;5.10;;
5157;SDS011;2598;52.364;9.772;2023-05-14T07:45:42;12.30;;;4.60;;
5157;SDS011;2598;52.364;9.772;2023-05-14T07:48:08;8.57;;;4.60;;
5157;SDS011;2598;52.364;9.772;2023-05-14T07:50:35;7.87;;;4.00;;
5157;SDS011;2598;52.364;9.772;2023-05-14T07:53:01;8.73;;;4.73;;
5157;SDS011;2598;52.364;9.772;2023-05-14T07:55:27;7.40;;;4.23;;
5157;SDS011;2598;52.364;9.772;2023-05-14T07:57:53;6.40;;;4.23;;
5157;SDS011;2598;52.364;9.772;2023-05-14T08:00:18;11.50;;;4.33;;
5157;SDS011;2598;52.364;9.772;2023-05-14T08:02:45;6.70;;;3.90;;
5157;SDS011;2598;52.364;9.772;2023-05-14T08:05:10;8.20;;;4.00;;
5157;SDS011;2598;52.364;9.772;2023-05-14T08:07:36;6.20;;;3.50;;
5157;SDS011;2598;52.364;9.772;2023-05-14T08:10:02;7.53;;;4.17;;
5157;SDS011;2598;52.364;9.772;2023-05-14T08:12:28;6.83;;;4.30;;
5157;SDS011;2598;52.364;9.772;2023-05-14T08:14:54;5.77;;;3.20;;
5157;SDS011;2598;52.364;9.772;2023-05-14T08:17:20;6.70;;;3.27;;
5157;SDS011;2598;52.364;9.772;2023-05-14T08:19:46;6.63;;;3.33;;
5157;SDS011;2598;52.364;9.772;2023-05-14T08:22:13;8.33;;;4.00;;
5157;SDS011;2598;52.364;9.772;2023-05-14T08:24:39;9.67;;;3.30;;
5157;SDS011;2598;52.364;9.772;2023-05-14T08:27:06;5.70;;;3.43;;
5157;SDS011;2598;52.364;9.772;2023-05-14T08:29:32;9.20;;;3.40;;
5157;SDS011;2598;52.364;9.772;2023-05-14T08:31:58;6.80;;;3.47;;
5157;SDS011;2598;52.364;9.772;2023-05-14T08:34:24;6.13;;;2.90;;
5157;SDS011;2598;52.364;9.772;2023-05-14T08:36:50;5.40;;;2.83;;
5157;SDS011;2598;52.364;9.772;2023-05-14T08:39:16;5.60;;;3.20;;
5157;SDS011;2598;52.364;9.772;2023-05-14T08:41:42;6.07;;;3.07;;
5157;SDS011;2598;52.364;9.772;2023-05-14T08:44:12;7.43;;;3.20;;
5157;SDS011;2598;52.364;9.772;2023-05-14T08:46:38;5.57;;;3.00;;
5157;SDS011;2598;52.364;9.772;2023-05-14T08:51:46;7.33;;;2.63;;
5157;SDS011;2598;52.364;9.772;2023-05-14T08:54:16;6.77;;;3.40;;
5157;SDS011;2598;52.364;9.772;2023-05-14T08:56:43;5.60;;;2.70;;
5157;SDS011;2598;52.364;9.772;2023-05-14T08:59:10;6.27;;;3.10;;
5157;SDS011;2598;52.364;9.772;2023-05-14T09:01:36;7.37;;;3.40;;
5157;SDS011;2598;52.364;9.772;2023-05-14T09:04:03;6.80;;;3.53;;
5157;SDS011;2598;52.364;9.772;2023-05-14T09:06:32;6.23;;;3.13;;
5157;SDS011;2598;52.364;9.772;2023-05-14T09:08:58;6.47;;;3.67;;
5157;SDS011;2598;52.364;9.772;2023-05-14T09:11:25;7.10;;;3.30;;
5157;SDS011;2598;52.364;9.772;2023-05-14T09:13:51;7.17;;;3.80;;
5157;SDS011;2598;52.364;9.772;2023-05-14T09:16:17;8.10;;;3.80;;
5157;SDS011;2598;52.364;9.772;2023-05-14T09:18:43;8.30;;;3.83;;
5157;SDS011;2598;52.364;9.772;2023-05-14T09:21:09;7.03;;;3.90;;
5157;SDS011;2598;52.364;9.772;2023-05-14T09:23:38;7.30;;;3.40;;
5157;SDS011;2598;52.364;9.772;2023-05-14T09:26:06;6.40;;;3.50;;
5157;SDS011;2598;52.364;9.772;2023-05-14T09:28:32;10.40;;;3.20;;
5157;SDS011;2598;52.364;9.772;2023-05-14T09:30:58;7.27;;;3.70;;
5157;SDS011;2598;52.364;9.772;2023-05-14T09:33:24;6.40;;;3.80;;
5157;SDS011;2598;52.364;9.772;2023-05-14T09:35:53;6.20;;;3.13;;
5157;SDS011;2598;52.364;9.772;2023-05-14T09:38:19;8.70;;;3.77;;
5157;SDS011;2598;52.364;9.772;2023-05-14T09:40:45;5.07;;;2.80;;
5157;SDS011;2598;52.364;9.772;2023-05-14T09:43:11;7.10;;;3.20;;
5157;SDS011;2598;52.364;9.772;2023-05-14T09:45:37;7.13;;;3.13;;
5157;SDS011;2598;52.364;9.772;2023-05-14T09:48:05;11.87;;;3.43;;
5157;SDS011;2598;52.364;9.772;2023-05-14T09:50:31;7.97;;;3.07;;
5157;SDS011;2598;52.364;9.772;2023-05-14T09:52:57;8.30;;;3.33;;
5157;SDS011;2598;52.364;9.772;2023-05-14T09:55:23;6.27;;;2.87;;
5157;SDS011;2598;52.364;9.772;2023-05-14T09:57:50;7.20;;;3.83;;
5157;SDS011;2598;52.364;9.772;2023-05-14T10:00:16;4.60;;;2.50;;
5157;SDS011;2598;52.364;9.772;2023-05-14T10:02:42;4.73;;;2.50;;
5157;SDS011;2598;52.364;9.772;2023-05-14T10:05:10;8.17;;;3.13;;
5157;SDS011;2598;52.364;9.772;2023-05-14T10:07:41;5.80;;;2.60;;
5157;SDS011;2598;52.364;9.772;2023-05-14T10:10:09;5.50;;;3.13;;
5157;SDS011;2598;52.364;9.772;2023-05-14T10:12:38;5.40;;;3.33;;
5157;SDS011;2598;52.364;9.772;2023-05-14T10:15:11;5.77;;;3.10;;
5157;SDS011;2598;52.364;9.772;2023-05-14T10:17:40;6.90;;;3.63;;
5157;SDS011;2598;52.364;9.772;2023-05-14T10:20:07;9.33;;;3.10;;
5157;SDS011;2598;52.364;9.772;2023-05-14T10:22:35;5.47;;;3.30;;
5157;SDS011;2598;52.364;9.772;2023-05-14T10:25:02;7.60;;;3.40;;
5157;SDS011;2598;52.364;9.772;2023-05-14T10:27:28;5.27;;;2.83;;
5157;SDS011;2598;52.364;9.772;2023-05-14T10:29:54;6.70;;;3.50;;
5157;SDS011;2598;52.364;9.772;2023-05-14T10:32:21;10.03;;;3.70;;
5157;SDS011;2598;52.364;9.772;2023-05-14T10:34:48;10.80;;;3.70;;
5157;SDS011;2598;52.364;9.772;2023-05-14T10:37:19;5.53;;;3.20;;
5157;SDS011;2598;52.364;9.772;2023-05-14T10:39:58;6.60;;;3.67;;
5157;SDS011;2598;52.364;9.772;2023-05-14T10:42:26;7.50;;;4.13;;
5157;SDS011;2598;52.364;9.772;2023-05-14T10:45:00;6.50;;;3.90;;
5157;SDS011;2598;52.364;9.772;2023-05-14T10:47:30;7.20;;;3.30;;
5157;SDS011;2598;52.364;9.772;2023-05-14T10:49:59;6.93;;;3.53;;
5157;SDS011;2598;52.364;9.772;2023-05-14T10:52:26;6.23;;;3.53;;
5157;SDS011;2598;52.364;9.772;2023-05-14T10:54:55;6.27;;;3.43;;
5157;SDS011;2598;52.364;9.772;2023-05-14T10:57:22;6.70;;;2.90;;
5157;SDS011;2598;52.364;9.772;2023-05-14T10:59:49;7.20;;;3.83;;
5157;SDS011;2598;52.364;9.772;2023-05-14T11:02:20;6.90;;;3.50;;
5157;SDS011;2598;52.364;9.772;2023-05-14T11:04:53;5.20;;;2.83;;
5157;SDS011;2598;52.364;9.772;2023-05-14T11:07:23;7.70;;;3.37;;
5157;SDS011;2598;52.364;9.772;2023-05-14T11:09:49;5.40;;;3.20;;
5157;SDS011;2598;52.364;9.772;2023-05-14T11:12:16;5.77;;;3.17;;
5157;SDS011;2598;52.364;9.772;2023-05-14T11:14:43;6.20;;;2.93;;
5157;SDS011;2598;52.364;9.772;2023-05-14T11:17:10;5.47;;;3.30;;
5157;SDS011;2598;52.364;9.772;2023-05-14T11:19:36;7.43;;;3.90;;
5157;SDS011;2598;52.364;9.772;2023-05-14T11:22:02;5.63;;;3.10;;
5157;SDS011;2598;52.364;9.772;2023-05-14T11:24:28;6.67;;;3.40;;
5157;SDS011;2598;52.364;9.772;2023-05-14T11:26:54;8.30;;;3.37;;
5157;SDS011;2598;52.364;9.772;2023-05-14T11:29:20;6.20;;;3.73;;
5157;SDS011;2598;52.364;9.772;2023-05-14T11:31:46;5.73;;;3.37;;
5157;SDS011;2598;52.364;9.772;2023-05-14T11:34:12;6.63;;;3.57;;
5157;SDS011;2598;52.364;9.772;2023-05-14T11:36:38;7.97;;;3.43;;
5157;SDS011;2598;52.364;9.772;2023-05-14T11:39:04;5.63;;;3.27;;
5157;SDS011;2598;52.364;9.772;2023-05-14T11:41:31;5.57;;;3.10;;
5157;SDS011;2598;52.364;9.772;2023-05-14T11:43:57;5.90;;;3.40;;
5157;SDS011;2598;52.364;9.772;2023-05-14T11:46:23;7.63;;;3.73;;
5157;SDS011;2598;52.364;9.772;2023-05-14T11:48:50;7.13;;;3.60;;
5157;SDS011;2598;52.364;9.772;2023-05-14T11:51:16;6.10;;;3.03;;
5157;SDS011;2598;52.364;9.772;2023-05-14T11:53:42;6.10;;;3.60;;
5157;SDS011;2598;52.364;9.772;2023-05-14T11:56:10;5.13;;;3.20;;
5157;SDS011;2598;52.364;9.772;2023-05-14T11:58:36;6.83;;;3.30;;
5157;SDS011;2598;52.364;9.772;2023-05-14T12:01:02;7.17;;;3.97;;
5157;SDS011;2598;52.364;9.772;2023-05-14T12:03:28;12.50;;;4.30;;
5157;SDS011;2598;52.364;9.772;2023-05-14T12:05:55;6.27;;;3.23;;
5157;SDS011;2598;52.364;9.772;2023-05-14T12:08:22;6.80;;;3.87;;
5157;SDS011;2598;52.364;9.772;2023-05-14T12:10:51;5.43;;;3.30;;
5157;SDS011;2598;52.364;9.772;2023-05-14T12:13:17;6.00;;;3.03;;
5157;SDS011;2598;52.364;9.772;2023-05-14T12:15:44;8.93;;;2.50;;
5157;SDS011;2598;52.364;9.772;2023-05-14T12:18:11;5.50;;;2.83;;
5157;SDS011;2598;52.364;9.772;2023-05-14T12:20:37;6.37;;;2.97;;
5157;SDS011;2598;52.364;9.772;2023-05-14T12:23:03;6.40;;;2.50;;
5157;SDS011;2598;52.364;9.772;2023-05-14T12:25:29;7.33;;;2.90;;
5157;SDS011;2598;52.364;9.772;2023-05-14T12:27:55;8.30;;;3.10;;
5157;SDS011;2598;52.364;9.772;2023-05-14T12:30:20;8.60;;;2.97;;
5157;SDS011;2598;52.364;9.772;2023-05-14T12:32:46;6.20;;;2.70;;
5157;SDS011;2598;52.364;9.772;2023-05-14T12:35:15;4.93;;;2.63;;
5157;SDS011;2598;52.364;9.772;2023-05-14T12:37:41;5.83;;;3.00;;
5157;SDS011;2598;52.364;9.772;2023-05-14T12:40:07;8.17;;;2.73;;
5157;SDS011;2598;52.364;9.772;2023-05-14T12:42:33;5.93;;;2.40;;
5157;SDS011;2598;52.364;9.772;2023-05-14T12:44:59;9.20;;;2.73;;
5157;SDS011;2598;52.364;9.772;2023-05-14T12:47:29;6.77;;;2.83;;
5157;SDS011;2598;52.364;9.772;2023-05-14T12:49:55;9.73;;;2.80;;
5157;SDS011;2598;52.364;9.772;2023-05-14T12:52:21;5.00;;;2.27;;
5157;SDS011;2598;52.364;9.772;2023-05-14T12:54:47;7.37;;;2.70;;
5157;SDS011;2598;52.364;9.772;2023-05-14T12:57:13;8.33;;;3.50;;
5157;SDS011;2598;52.364;9.772;2023-05-14T12:59:39;6.33;;;2.70;;
5157;SDS011;2598;52.364;9.772;2023-05-14T13:02:05;8.00;;;3.43;;
5157;SDS011;2598;52.364;9.772;2023-05-14T13:04:31;7.13;;;3.27;;
5157;SDS011;2598;52.364;9.772;2023-05-14T13:06:57;6.27;;;2.93;;
5157;SDS011;2598;52.364;9.772;2023-05-14T13:09:24;8.23;;;3.17;;
5157;SDS011;2598;52.364;9.772;2023-05-14T13:11:51;7.57;;;3.40;;
5157;SDS011;2598;52.364;9.772;2023-05-14T13:14:17;5.73;;;2.80;;
5157;SDS011;2598;52.364;9.772;2023-05-14T13:16:43;6.20;;;3.37;;
5157;SDS011;2598;52.364;9.772;2023-05-14T13:19:09;8.30;;;3.27;;
5157;SDS011;2598;52.364;9.772;2023-05-14T13:21:35;7.90;;;2.87;;
5157;SDS011;2598;52.364;9.772;2023-05-14T13:24:01;6.57;;;3.33;;
5157;SDS011;2598;52.364;9.772;2023-05-14T13:26:27;7.67;;;3.10;;
5157;SDS011;2598;52.364;9.772;2023-05-14T13:28:53;5.07;;;2.87;;
5157;SDS011;2598;52.364;9.772;2023-05-14T13:31:19;6.20;;;2.90;;
5157;SDS011;2598;52.364;9.772;2023-05-14T13:33:45;6.33;;;2.87;;
5157;SDS011;2598;52.364;9.772;2023-05-14T13:36:11;7.13;;;3.07;;
5157;SDS011;2598;52.364;9.772;2023-05-14T13:38:37;6.33;;;3.00;;
5157;SDS011;2598;52.364;9.772;2023-05-14T13:41:04;5.73;;;3.17;;
5157;SDS011;2598;52.364;9.772;2023-05-14T13:43:30;4.50;;;2.33;;
5157;SDS011;2598;52.364;9.772;2023-05-14T13:45:56;7.93;;;3.53;;
5157;SDS011;2598;52.364;9.772;2023-05-14T13:48:23;6.10;;;3.30;;
5157;SDS011;2598;52.364;9.772;2023-05-14T13:50:49;6.27;;;3.17;;
5157;SDS011;2598;52.364;9.772;2023-05-14T13:53:15;8.33;;;3.00;;
5157;SDS011;2598;52.364;9.772;2023-05-14T13:55:41;5.23;;;2.90;;
5157;SDS011;2598;52.364;9.772;2023-05-14T13:58:07;6.67;;;3.10;;
5157;SDS011;2598;52.364;9.772;2023-05-14T14:00:33;6.03;;;2.97;;
5157;SDS011;2598;52.364;9.772;2023-05-14T14:02:59;7.73;;;3.23;;
5157;SDS011;2598;52.364;9.772;2023-05-14T14:05:25;5.90;;;2.83;;
5157;SDS011;2598;52.364;9.772;2023-05-14T14:07:53;6.43;;;3.10;;
5157;SDS011;2598;52.364;9.772;2023-05-14T14:10:19;5.70;;;3.00;;
5157;SDS011;2598;52.364;9.772;2023-05-14T14:12:45;5.47;;;3.00;;
5157;SDS011;2598;52.364;9.772;2023-05-14T14:15:10;8.20;;;2.90;;
5157;SDS011;2598;52.364;9.772;2023-05-14T14:17:36;5.43;;;2.70;;
5157;SDS011;2598;52.364;9.772;2023-05-14T14:20:05;6.63;;;3.30;;
5157;SDS011;2598;52.364;9.772;2023-05-14T14:22:32;5.60;;;3.20;;
5157;SDS011;2598;52.364;9.772;2023-05-14T14:24:58;4.80;;;2.63;;
5157;SDS011;2598;52.364;9.772;2023-05-14T14:27:24;4.83;;;3.10;;
5157;SDS011;2598;52.364;9.772;2023-05-14T14:29:50;4.50;;;2.90;;
5157;SDS011;2598;52.364;9.772;2023-05-14T14:32:16;6.50;;;2.70;;
5157;SDS011;2598;52.364;9.772;2023-05-14T14:34:42;5.77;;;2.70;;
5157;SDS011;2598;52.364;9.772;2023-05-14T14:37:09;4.80;;;2.40;;
5157;SDS011;2598;52.364;9.772;2023-05-14T14:39:34;6.33;;;2.80;;
5157;SDS011;2598;52.364;9.772;2023-05-14T14:42:00;5.47;;;2.60;;
5157;SDS011;2598;52.364;9.772;2023-05-14T14:44:26;4.13;;;2.30;;
5157;SDS011;2598;52.364;9.772;2023-05-14T14:46:52;4.03;;;1.90;;
5157;SDS011;2598;52.364;9.772;2023-05-14T14:49:18;4.10;;;2.00;;
5157;SDS011;2598;52.364;9.772;2023-05-14T14:51:44;5.30;;;1.90;;
5157;SDS011;2598;52.364;9.772;2023-05-14T14:54:10;4.77;;;2.13;;
5157;SDS011;2598;52.364;9.772;2023-05-14T14:56:36;4.47;;;1.97;;
5157;SDS011;2598;52.364;9.772;2023-05-14T14:59:03;5.27;;;2.30;;
5157;SDS011;2598;52.364;9.772;2023-05-14T15:01:29;4.73;;;2.40;;
5157;SDS011;2598;52.364;9.772;2023-05-14T15:03:55;8.53;;;2.97;;
5157;SDS011;2598;52.364;9.772;2023-05-14T15:06:20;4.73;;;2.30;;
5157;SDS011;2598;52.364;9.772;2023-05-14T15:08:46;5.07;;;2.13;;
5157;SDS011;2598;52.364;9.772;2023-05-14T15:11:13;4.60;;;2.20;;
5157;SDS011;2598;52.364;9.772;2023-05-14T15:13:39;11.33;;;2.23;;